Time;durP1;ratioP1;P1;durP2;ratioP2;P2;SDS_P1;SDS_P2;PMS_P1;PMS_P2;Temp;Humidity;BMP_temperature;BMP_pressure;BME280_temperature;BME280_humidity;BME280_pressure;Samples;Min_cycle;Max_cycle;Signal;HPM_P1;HPM_P2
2022/01/19 00:01:36;;;;;;;1.67;1.57;;;9.00;75.90;;;;;;893629;160;27413;-78
2022/01/19 00:04:02;;;;;;;2.10;1.63;;;9.00;76.00;;;;;;892222;160;27350;-78
2022/01/19 00:06:32;;;;;;;1.53;1.43;;;9.00;76.00;;;;;;892883;160;27401;-78
2022/01/19 00:08:58;;;;;;;2.00;1.70;;;9.00;76.00;;;;;;894963;160;27511;-78
2022/01/19 00:11:25;;;;;;;1.63;1.53;;;9.00;76.00;;;;;;892773;160;27432;-78
2022/01/19 00:13:51;;;;;;;1.17;1.17;;;9.00;76.00;;;;;;893001;160;27406;-78
2022/01/19 00:16:18;;;;;;;1.43;1.37;;;9.00;76.00;;;;;;892549;160;27530;-78
2022/01/19 00:18:44;;;;;;;1.40;1.40;;;9.00;76.10;;;;;;892550;160;27366;-78
2022/01/19 00:21:11;;;;;;;1.57;1.43;;;9.00;76.10;;;;;;892684;156;27521;-79
2022/01/19 00:23:38;;;;;;;1.57;1.50;;;9.00;76.10;;;;;;893284;160;27420;-78
2022/01/19 00:26:04;;;;;;;1.50;1.40;;;9.00;76.10;;;;;;893533;156;27542;-78
2022/01/19 00:28:31;;;;;;;1.57;1.47;;;9.00;76.10;;;;;;891915;160;27341;-78
2022/01/19 00:30:57;;;;;;;1.47;1.37;;;9.00;76.00;;;;;;894048;159;28027;-78
2022/01/19 00:33:24;;;;;;;1.30;1.20;;;9.00;76.00;;;;;;892490;160;27385;-78
2022/01/19 00:35:51;;;;;;;1.73;1.37;;;9.00;76.00;;;;;;893527;156;27530;-78
2022/01/19 00:38:17;;;;;;;1.40;1.40;;;8.90;75.90;;;;;;894196;160;27945;-78
2022/01/19 00:40:44;;;;;;;1.50;1.40;;;8.90;75.90;;;;;;892799;157;27418;-78
2022/01/19 00:43:10;;;;;;;1.40;1.30;;;8.90;76.00;;;;;;891264;157;27540;-78
2022/01/19 00:45:37;;;;;;;2.67;1.53;;;8.90;76.10;;;;;;891243;160;27471;-78
2022/01/19 00:48:04;;;;;;;1.90;1.70;;;8.90;76.00;;;;;;893329;156;27437;-78
2022/01/19 00:50:30;;;;;;;1.20;1.20;;;8.90;76.00;;;;;;891492;158;27450;-78
2022/01/19 00:52:59;;;;;;;1.43;1.33;;;8.90;76.10;;;;;;890626;160;27500;-78
2022/01/19 00:55:26;;;;;;;1.37;1.30;;;8.90;76.10;;;;;;893224;160;27408;-78
2022/01/19 00:57:53;;;;;;;1.57;1.47;;;8.90;76.00;;;;;;894105;158;27491;-78
2022/01/19 01:00:19;;;;;;;1.40;1.30;;;8.90;76.00;;;;;;893255;157;27540;-78
2022/01/19 01:02:46;;;;;;;2.60;1.50;;;8.90;76.10;;;;;;892695;160;27429;-78
2022/01/19 01:05:12;;;;;;;1.57;1.47;;;8.90;76.10;;;;;;893486;157;27428;-78
2022/01/19 01:07:40;;;;;;;1.73;1.63;;;8.90;76.10;;;;;;892209;160;27386;-78
2022/01/19 01:10:05;;;;;;;1.70;1.60;;;8.90;76.10;;;;;;892752;157;27385;-78
2022/01/19 01:12:44;;;;;;;1.83;1.73;;;8.80;76.00;;;;;;891573;160;27418;-78
2022/01/19 01:20:28;;;;;;;1.77;1.67;;;8.80;76.10;;;;;;891623;156;27509;-78
2022/01/19 01:22:57;;;;;;;1.57;1.47;;;8.80;76.10;;;;;;892330;160;27359;-78
2022/01/19 01:25:24;;;;;;;1.80;1.70;;;8.80;76.20;;;;;;894022;156;27433;-78
2022/01/19 01:27:50;;;;;;;1.77;1.67;;;8.80;76.30;;;;;;892023;160;27873;-78
2022/01/19 01:30:17;;;;;;;1.93;1.73;;;8.80;76.40;;;;;;892594;160;27425;-77
2022/01/19 01:32:43;;;;;;;1.93;1.83;;;8.80;76.40;;;;;;891912;160;27397;-78
2022/01/19 01:35:10;;;;;;;2.60;1.60;;;8.80;76.40;;;;;;892492;159;27537;-77
2022/01/19 01:37:36;;;;;;;2.20;1.70;;;8.80;76.50;;;;;;893303;156;27457;-78
2022/01/19 01:40:08;;;;;;;1.70;1.60;;;8.80;76.40;;;;;;891532;160;27980;-78
2022/01/19 01:42:32;;;;;;;1.87;1.77;;;8.80;76.40;;;;;;892462;159;27833;-78
2022/01/19 01:45:01;;;;;;;1.67;1.57;;;8.80;76.40;;;;;;893109;160;27483;-78
2022/01/19 01:47:28;;;;;;;1.80;1.70;;;8.80;76.40;;;;;;893543;156;27508;-78
2022/01/19 01:55:06;;;;;;;2.00;1.80;;;8.80;76.30;;;;;;895075;160;27929;-78
2022/01/19 01:57:32;;;;;;;1.70;1.60;;;8.80;76.30;;;;;;891810;158;27378;-78
2022/01/19 01:59:59;;;;;;;2.17;2.00;;;8.80;76.20;;;;;;893066;160;27461;-78
2022/01/19 02:02:25;;;;;;;1.77;1.67;;;8.80;76.30;;;;;;891253;160;27432;-77
2022/01/19 02:04:55;;;;;;;2.33;2.07;;;8.80;76.30;;;;;;893325;160;27420;-78
2022/01/19 02:07:32;;;;;;;1.77;1.67;;;8.80;76.40;;;;;;892655;159;27900;-78
2022/01/19 02:09:57;;;;;;;1.70;1.60;;;8.80;76.40;;;;;;891739;158;27453;-79
2022/01/19 02:23:28;;;;;;;2.30;1.90;;;8.80;76.30;;;;;;894630;152;27462;-79
2022/01/19 02:25:48;;;;;;;2.00;1.90;;;8.80;76.30;;;;;;891719;156;27546;-79
2022/01/19 02:41:36;;;;;;;1.80;1.70;;;8.70;76.30;;;;;;890183;160;27881;-79
2022/01/19 02:44:01;;;;;;;2.20;2.10;;;8.70;76.30;;;;;;887377;159;27496;-79
2022/01/19 02:46:51;;;;;;;2.00;1.90;;;8.70;76.20;;;;;;889611;160;27375;-79
2022/01/19 02:49:16;;;;;;;2.00;1.90;;;8.70;76.20;;;;;;888433;157;27474;-79
2022/01/19 02:51:41;;;;;;;2.30;2.20;;;8.70;76.10;;;;;;889273;160;27481;-79
2022/01/19 02:54:07;;;;;;;2.27;2.00;;;8.60;76.00;;;;;;900413;159;27445;-78
2022/01/19 02:56:37;;;;;;;2.23;2.03;;;8.60;76.70;;;;;;916020;154;27472;-79
2022/01/19 02:59:14;;;;;;;1.80;1.70;;;8.60;75.80;;;;;;918834;154;27492;-79
2022/01/19 03:09:25;;;;;;;2.00;1.87;;;8.50;75.70;;;;;;920162;155;27364;-78
2022/01/19 03:11:55;;;;;;;2.27;2.07;;;8.50;76.40;;;;;;918800;155;27362;-78
2022/01/19 03:14:21;;;;;;;3.03;1.80;;;8.50;75.70;;;;;;918428;155;27418;-79
2022/01/19 03:16:48;;;;;;;1.80;1.70;;;8.40;75.60;;;;;;919767;155;27465;-79
2022/01/19 03:19:14;;;;;;;2.23;2.03;;;8.40;75.50;;;;;;917256;155;27283;-79
2022/01/19 03:21:41;;;;;;;2.17;2.07;;;8.40;75.60;;;;;;918915;152;27337;-79
2022/01/19 03:24:11;;;;;;;2.00;1.90;;;8.40;75.60;;;;;;917386;155;27359;-79
2022/01/19 03:26:37;;;;;;;1.97;1.87;;;8.40;75.60;;;;;;920067;152;27422;-79
2022/01/19 03:29:03;;;;;;;1.83;1.73;;;8.40;75.70;;;;;;918930;155;27373;-79
2022/01/19 03:31:30;;;;;;;2.93;2.00;;;8.40;75.70;;;;;;917750;155;27750;-79
2022/01/19 03:33:57;;;;;;;2.20;2.00;;;8.40;75.80;;;;;;918723;155;27400;-78
2022/01/19 03:36:23;;;;;;;2.20;2.10;;;8.40;75.70;;;;;;919857;152;27349;-79
2022/01/19 03:38:50;;;;;;;1.87;1.77;;;8.30;75.70;;;;;;918421;155;27480;-79
2022/01/19 03:41:19;;;;;;;2.43;2.20;;;8.30;75.70;;;;;;918458;154;27507;-78
2022/01/19 03:43:46;;;;;;;2.00;1.90;;;8.30;75.70;;;;;;917618;155;27441;-79
2022/01/19 03:46:16;;;;;;;2.30;2.10;;;8.30;75.70;;;;;;917025;154;27323;-79
2022/01/19 03:48:56;;;;;;;2.50;2.30;;;8.30;76.40;;;;;;918087;152;27387;-79
2022/01/19 03:51:20;;;;;;;2.33;2.13;;;8.30;75.80;;;;;;918638;155;27334;-79
2022/01/19 03:53:46;;;;;;;2.37;2.27;;;8.30;75.80;;;;;;919399;155;27318;-79
2022/01/19 03:56:13;;;;;;;2.10;1.93;;;8.30;76.60;;;;;;915754;155;27374;-79
2022/01/19 03:58:39;;;;;;;2.33;2.23;;;8.30;75.80;;;;;;919657;155;27339;-79
2022/01/19 04:01:06;;;;;;;2.63;2.43;;;8.30;75.80;;;;;;917902;155;27395;-78
2022/01/19 04:06:22;;;;;;;3.03;2.83;;;8.30;76.40;;;;;;918058;155;27386;-79
2022/01/19 04:08:47;;;;;;;2.80;2.60;;;8.30;75.80;;;;;;916859;155;27338;-78
2022/01/19 04:11:16;;;;;;;3.60;3.00;;;8.30;75.70;;;;;;918931;155;27444;-79
2022/01/19 04:16:22;;;;;;;3.57;3.13;;;8.30;75.80;;;;;;919878;152;27421;-79
2022/01/19 04:18:51;;;;;;;3.23;3.00;;;8.30;75.80;;;;;;918890;155;27460;-79
2022/01/19 04:21:15;;;;;;;2.97;2.77;;;8.20;75.80;;;;;;918783;152;27383;-78
2022/01/19 04:23:41;;;;;;;3.10;2.90;;;8.20;75.90;;;;;;917610;155;27345;-78
2022/01/19 04:26:08;;;;;;;3.80;3.50;;;8.20;75.90;;;;;;919341;152;27345;-79
2022/01/19 04:28:36;;;;;;;3.50;3.20;;;8.20;76.00;;;;;;919229;155;27814;-79
2022/01/19 04:31:01;;;;;;;3.07;2.87;;;8.20;75.90;;;;;;917300;155;27709;-79
2022/01/19 04:33:28;;;;;;;3.10;2.90;;;8.20;75.90;;;;;;916523;155;27449;-79
2022/01/19 04:36:07;;;;;;;4.10;3.70;;;8.20;75.90;;;;;;917010;155;27287;-79
2022/01/19 04:39:06;;;;;;;3.90;3.60;;;8.20;75.90;;;;;;887528;160;27473;-79
2022/01/19 04:47:02;;;;;;;4.17;3.83;;;8.20;75.80;;;;;;924782;154;27449;-79
2022/01/19 04:49:12;;;;;;;3.77;3.47;;;8.20;75.90;;;;;;923187;151;27375;-79
2022/01/19 04:54:38;;;;;;;3.87;3.57;;;8.10;75.80;;;;;;894475;157;27545;-80
2022/01/19 05:07:39;;;;;;;4.13;3.80;;;7.80;74.60;;;;;;925274;154;27563;-79
2022/01/19 05:13:24;;;;;;;4.60;4.10;;;7.60;74.50;;;;;;923075;154;27321;-79
2022/01/19 05:15:19;;;;;;;4.13;3.53;;;7.40;74.50;;;;;;924625;154;27532;-79
2022/01/19 05:17:44;;;;;;;4.00;3.70;;;7.20;74.50;;;;;;925156;154;27380;-79
2022/01/19 05:20:11;;;;;;;4.50;4.10;;;7.10;74.60;;;;;;925710;151;27366;-79
2022/01/19 05:22:40;;;;;;;8.80;4.17;;;7.00;73.90;;;;;;925474;154;27410;-79
2022/01/19 05:25:07;;;;;;;4.77;4.37;;;6.90;74.80;;;;;;925794;151;27407;-79
2022/01/19 05:27:33;;;;;;;4.97;4.47;;;6.80;75.00;;;;;;925164;154;27434;-79
2022/01/19 05:30:00;;;;;;;4.67;4.27;;;6.70;75.20;;;;;;924506;154;27364;-79
2022/01/19 05:32:26;;;;;;;4.80;4.27;;;6.60;75.10;;;;;;924296;154;28500;-79
2022/01/19 05:34:53;;;;;;;4.87;4.43;;;6.50;75.10;;;;;;925256;154;27334;-79
2022/01/19 05:37:19;;;;;;;4.57;4.17;;;6.40;75.30;;;;;;924186;151;27330;-79
2022/01/19 05:39:46;;;;;;;5.23;4.70;;;6.30;75.40;;;;;;922014;154;27395;-79
2022/01/19 05:42:16;;;;;;;5.80;4.67;;;6.30;75.60;;;;;;922754;154;27413;-79
2022/01/19 05:44:39;;;;;;;4.27;3.87;;;6.20;76.10;;;;;;922195;151;27392;-79
2022/01/19 05:47:06;;;;;;;6.77;4.67;;;6.10;75.70;;;;;;920492;151;27438;-79
2022/01/19 05:49:32;;;;;;;5.27;4.57;;;6.00;75.80;;;;;;922276;151;27330;-79
2022/01/19 05:51:59;;;;;;;5.33;4.40;;;6.00;76.00;;;;;;922084;152;27340;-79
2022/01/19 05:54:26;;;;;;;5.10;4.57;;;5.90;76.10;;;;;;921883;155;27443;-78
2022/01/19 05:56:53;;;;;;;5.27;4.47;;;5.80;76.20;;;;;;921926;155;27394;-79
2022/01/19 05:59:21;;;;;;;4.77;4.37;;;5.70;76.30;;;;;;924162;154;27445;-79
2022/01/19 06:01:45;;;;;;;5.30;4.80;;;5.70;76.40;;;;;;920759;154;27270;-78
2022/01/19 06:04:12;;;;;;;5.17;4.67;;;5.60;76.60;;;;;;918911;152;27410;-79
2022/01/19 06:06:39;;;;;;;5.43;4.90;;;5.50;76.60;;;;;;923301;154;27407;-79
2022/01/19 06:09:20;;;;;;;4.93;4.47;;;5.50;76.70;;;;;;923451;155;27361;-79
2022/01/19 06:11:32;;;;;;;6.20;5.40;;;5.40;76.90;;;;;;892953;160;28480;-79
2022/01/19 06:13:58;;;;;;;7.57;5.50;;;5.30;76.90;;;;;;922209;155;27897;-79
2022/01/19 06:16:25;;;;;;;6.40;4.80;;;5.20;77.10;;;;;;922305;155;27469;-79
2022/01/19 06:18:51;;;;;;;5.40;4.07;;;5.20;77.20;;;;;;922766;154;27371;-79
2022/01/19 06:21:18;;;;;;;6.17;4.97;;;5.10;77.20;;;;;;922191;151;27459;-79
2022/01/19 06:23:45;;;;;;;4.63;4.23;;;5.00;77.40;;;;;;923189;155;27791;-79
2022/01/19 06:26:11;;;;;;;4.77;4.27;;;5.00;77.50;;;;;;922209;151;27338;-79
2022/01/19 06:28:38;;;;;;;4.10;3.70;;;4.90;77.70;;;;;;921400;152;27302;-79
2022/01/19 06:31:06;;;;;;;5.83;4.10;;;4.90;77.80;;;;;;921604;154;27294;-79
2022/01/19 06:33:31;;;;;;;4.40;4.00;;;4.80;78.00;;;;;;922799;152;27454;-79
2022/01/19 06:35:58;;;;;;;4.70;4.30;;;4.70;78.10;;;;;;920326;155;27873;-79
2022/01/19 06:38:24;;;;;;;5.10;4.60;;;4.70;78.30;;;;;;922728;151;27346;-79
2022/01/19 06:40:51;;;;;;;3.90;3.53;;;4.60;78.50;;;;;;922553;155;27267;-79
2022/01/19 06:43:17;;;;;;;4.30;3.97;;;4.60;78.70;;;;;;918550;152;27377;-79
2022/01/19 06:45:44;;;;;;;6.00;4.00;;;4.50;78.90;;;;;;917706;155;27399;-79
2022/01/19 06:48:10;;;;;;;4.27;3.97;;;4.50;79.10;;;;;;918894;154;27367;-78
2022/01/19 06:50:37;;;;;;;4.47;3.80;;;4.50;79.30;;;;;;918918;155;27401;-79
2022/01/19 06:53:04;;;;;;;5.50;5.00;;;4.50;79.40;;;;;;918184;155;27319;-79
2022/01/19 06:55:31;;;;;;;4.53;4.07;;;4.50;79.60;;;;;;919754;155;27349;-79
2022/01/19 06:57:57;;;;;;;4.73;4.23;;;4.50;79.60;;;;;;917986;154;27514;-79
2022/01/19 07:00:26;;;;;;;5.00;4.40;;;4.40;79.70;;;;;;919006;155;27366;-79
2022/01/19 07:02:55;;;;;;;4.27;3.80;;;4.40;79.90;;;;;;917691;155;27367;-79
2022/01/19 07:05:22;;;;;;;5.23;4.00;;;4.40;79.80;;;;;;917077;155;27494;-78
2022/01/19 07:07:49;;;;;;;4.40;3.77;;;4.40;80.00;;;;;;918312;155;27336;-79
2022/01/19 07:10:15;;;;;;;3.93;3.53;;;4.40;80.00;;;;;;918004;154;27365;-79
2022/01/19 07:12:42;;;;;;;6.33;4.10;;;4.40;80.10;;;;;;887563;161;27457;-79
2022/01/19 07:15:08;;;;;;;4.47;4.07;;;4.40;80.10;;;;;;918514;155;27471;-79
2022/01/19 07:17:35;;;;;;;4.23;3.83;;;4.40;80.30;;;;;;918712;155;27275;-79
2022/01/19 07:20:02;;;;;;;4.07;3.37;;;4.40;80.30;;;;;;916810;152;27440;-79
2022/01/19 07:22:34;;;;;;;4.33;4.03;;;4.40;80.40;;;;;;917007;155;27467;-79
2022/01/19 07:25:01;;;;;;;5.23;4.00;;;4.40;80.50;;;;;;917234;152;27484;-79
2022/01/19 07:27:27;;;;;;;4.37;3.97;;;4.30;80.50;;;;;;918080;155;27389;-79
2022/01/19 07:29:54;;;;;;;3.77;3.47;;;4.30;80.60;;;;;;918152;155;27383;-78
2022/01/19 07:32:22;;;;;;;4.57;4.03;;;4.30;80.80;;;;;;919543;154;28132;-79
2022/01/19 07:34:47;;;;;;;5.37;4.10;;;4.40;81.20;;;;;;916346;155;27482;-79
2022/01/19 07:37:14;;;;;;;5.83;4.50;;;4.40;81.40;;;;;;918676;152;28208;-79
2022/01/19 07:39:40;;;;;;;5.33;4.13;;;4.50;81.80;;;;;;918175;155;27274;-79
2022/01/19 07:42:07;;;;;;;4.80;4.13;;;4.60;82.30;;;;;;919150;154;27420;-79
2022/01/19 07:44:33;;;;;;;5.37;4.33;;;4.80;82.90;;;;;;916639;154;27397;-79
2022/01/19 07:47:00;;;;;;;4.43;3.73;;;5.00;83.40;;;;;;917635;154;27468;-79
2022/01/19 07:49:26;;;;;;;4.77;4.23;;;5.30;83.70;;;;;;917208;152;27354;-78
2022/01/19 07:51:53;;;;;;;5.00;4.03;;;5.50;83.80;;;;;;919889;155;27447;-79
2022/01/19 07:54:20;;;;;;;4.57;4.17;;;5.80;83.90;;;;;;919065;155;27370;-79
2022/01/19 07:56:47;;;;;;;4.90;4.37;;;6.20;83.90;;;;;;916114;155;27383;-78
2022/01/19 07:59:16;;;;;;;5.70;4.50;;;6.50;83.70;;;;;;919231;154;27404;-79
2022/01/19 08:01:42;;;;;;;4.80;4.27;;;6.80;83.40;;;;;;917812;155;27850;-79
2022/01/19 08:04:09;;;;;;;5.30;4.30;;;7.20;83.30;;;;;;918061;155;27405;-79
2022/01/19 08:06:36;;;;;;;5.10;4.60;;;7.50;82.90;;;;;;916659;155;27369;-78
2022/01/19 08:09:02;;;;;;;5.03;4.07;;;7.90;82.60;;;;;;919997;155;27473;-78
2022/01/19 08:11:29;;;;;;;4.87;4.40;;;8.20;82.10;;;;;;920028;154;27290;-79
2022/01/19 08:13:55;;;;;;;5.13;4.37;;;8.60;81.70;;;;;;920157;155;27593;-79
2022/01/19 08:16:22;;;;;;;4.93;4.53;;;8.90;81.20;;;;;;921927;155;27765;-79
2022/01/19 08:18:48;;;;;;;6.90;4.80;;;9.30;80.80;;;;;;921149;155;27271;-79
2022/01/19 08:21:15;;;;;;;6.43;4.87;;;9.60;80.30;;;;;;917703;152;27426;-79
2022/01/19 08:23:42;;;;;;;6.13;4.70;;;10.00;79.80;;;;;;918755;155;27399;-79
2022/01/19 08:26:08;;;;;;;8.93;5.27;;;10.30;79.20;;;;;;917976;152;27387;-79
2022/01/19 08:28:35;;;;;;;5.73;4.83;;;10.70;78.50;;;;;;919603;155;27747;-79
2022/01/19 08:31:01;;;;;;;4.87;4.47;;;11.00;77.20;;;;;;917912;154;27356;-79
2022/01/19 08:33:28;;;;;;;5.70;4.67;;;11.20;76.60;;;;;;917958;154;27311;-79
2022/01/19 08:35:55;;;;;;;5.57;4.40;;;11.40;75.90;;;;;;918473;154;27380;-79
2022/01/19 08:38:21;;;;;;;4.73;3.97;;;11.50;75.10;;;;;;919273;152;27306;-79
2022/01/19 08:40:48;;;;;;;5.07;4.13;;;11.60;73.80;;;;;;917007;155;27338;-79
2022/01/19 08:43:14;;;;;;;5.67;4.27;;;11.60;72.50;;;;;;918679;154;27380;-79
2022/01/19 08:45:43;;;;;;;6.63;4.57;;;11.50;71.60;;;;;;924385;151;27332;-81
2022/01/19 08:48:10;;;;;;;5.17;4.13;;;11.30;70.90;;;;;;925113;151;28442;-80
2022/01/19 08:50:37;;;;;;;4.67;4.27;;;11.10;70.40;;;;;;924979;153;27351;-79
2022/01/19 08:53:03;;;;;;;5.80;4.87;;;11.00;70.30;;;;;;922056;154;27469;-80
2022/01/19 08:55:30;;;;;;;5.63;4.77;;;10.80;70.60;;;;;;924526;153;27407;-79
2022/01/19 08:57:56;;;;;;;5.20;4.73;;;10.60;70.90;;;;;;922718;151;27402;-79
2022/01/19 09:00:23;;;;;;;7.83;4.90;;;10.40;71.00;;;;;;923748;154;27449;-80
2022/01/19 09:02:49;;;;;;;6.87;4.63;;;10.30;71.00;;;;;;924782;151;27434;-80
2022/01/19 09:05:19;;;;;;;8.20;5.33;;;10.10;70.80;;;;;;924343;154;27380;-80
2022/01/19 09:07:45;;;;;;;5.23;4.73;;;9.90;70.70;;;;;;922730;154;27440;-80
2022/01/19 09:10:12;;;;;;;6.23;5.03;;;9.80;70.80;;;;;;925146;154;27468;-80
2022/01/19 09:12:41;;;;;;;6.73;4.93;;;9.60;70.90;;;;;;924136;151;27374;-79
2022/01/19 09:15:08;;;;;;;6.87;5.00;;;9.40;71.00;;;;;;925531;153;27365;-80
2022/01/19 09:17:34;;;;;;;7.50;4.53;;;9.20;72.00;;;;;;923292;151;27302;-80
2022/01/19 09:20:01;;;;;;;7.13;5.30;;;9.10;71.40;;;;;;926000;151;27341;-80
2022/01/19 09:22:28;;;;;;;7.20;5.03;;;8.90;71.40;;;;;;922503;151;27477;-79
2022/01/19 09:24:54;;;;;;;7.20;5.07;;;8.80;71.60;;;;;;924745;154;27380;-79
2022/01/19 09:27:21;;;;;;;5.00;4.50;;;8.60;71.70;;;;;;924941;151;27435;-79
2022/01/19 09:29:47;;;;;;;4.83;4.33;;;8.50;72.00;;;;;;925599;151;27403;-79
2022/01/19 09:32:14;;;;;;;8.73;4.37;;;8.40;72.20;;;;;;924838;151;27870;-79
2022/01/19 09:34:42;;;;;;;6.90;5.47;;;8.30;73.00;;;;;;923205;152;27482;-80
2022/01/19 09:37:07;;;;;;;4.70;4.23;;;8.20;72.70;;;;;;927543;151;27349;-80
2022/01/19 09:39:34;;;;;;;5.33;4.37;;;8.10;72.80;;;;;;923991;154;27293;-79
2022/01/19 09:42:00;;;;;;;7.50;4.83;;;8.10;73.10;;;;;;922500;151;27447;-80
2022/01/19 09:44:29;;;;;;;5.43;4.87;;;8.00;73.20;;;;;;925191;152;27366;-80
2022/01/19 09:46:53;;;;;;;5.83;4.83;;;8.00;73.80;;;;;;922140;151;27316;-80
2022/01/19 09:49:20;;;;;;;6.10;4.90;;;7.90;73.50;;;;;;923177;151;27405;-80
2022/01/19 09:51:47;;;;;;;7.17;4.73;;;7.90;73.80;;;;;;923025;151;27387;-80
2022/01/19 09:54:13;;;;;;;6.20;4.70;;;7.90;74.00;;;;;;922483;152;27450;-80
2022/01/19 09:56:40;;;;;;;6.27;4.90;;;7.80;74.10;;;;;;922024;152;27270;-80
2022/01/19 09:59:07;;;;;;;5.30;4.80;;;7.90;74.20;;;;;;921624;154;27357;-80
2022/01/19 10:01:33;;;;;;;5.60;4.43;;;7.90;74.30;;;;;;920328;152;27374;-80
2022/01/19 10:04:00;;;;;;;4.87;4.37;;;7.90;74.40;;;;;;919119;154;27398;-80
2022/01/19 10:06:26;;;;;;;6.80;4.93;;;7.90;74.50;;;;;;918481;151;27296;-80
2022/01/19 10:08:54;;;;;;;6.07;4.70;;;7.90;74.50;;;;;;922658;155;27464;-80
2022/01/19 10:17:00;;;;;;;5.30;4.63;;;8.00;74.70;;;;;;920868;154;27467;-80
2022/01/19 10:19:29;;;;;;;7.27;4.67;;;8.00;75.50;;;;;;922605;154;27324;-80
2022/01/19 10:21:59;;;;;;;6.77;5.00;;;8.10;75.00;;;;;;923478;151;27371;-80
2022/01/19 10:24:38;;;;;;;5.03;4.50;;;8.10;75.00;;;;;;923386;152;27381;-80
2022/01/19 10:27:28;;;;;;;4.60;4.17;;;8.20;75.20;;;;;;922949;151;27796;-80
2022/01/19 10:30:04;;;;;;;5.27;4.33;;;8.30;75.00;;;;;;922370;155;27372;-80
2022/01/19 10:32:33;;;;;;;5.90;5.30;;;8.40;74.90;;;;;;921800;155;27323;-80
2022/01/19 10:35:15;;;;;;;6.00;4.63;;;8.50;74.90;;;;;;923386;155;27797;-80
2022/01/19 10:37:41;;;;;;;4.87;4.47;;;8.50;74.70;;;;;;921004;151;27373;-80
2022/01/19 10:40:08;;;;;;;7.03;4.77;;;8.60;74.60;;;;;;923191;154;27393;-80
2022/01/19 10:42:35;;;;;;;6.50;5.70;;;8.70;74.60;;;;;;920046;154;27329;-80
2022/01/19 10:45:01;;;;;;;5.37;4.80;;;8.80;74.60;;;;;;922430;154;27629;-80
2022/01/19 10:47:39;;;;;;;5.27;4.77;;;8.90;74.40;;;;;;892483;158;27394;-80
2022/01/19 10:50:06;;;;;;;7.60;5.10;;;9.00;74.40;;;;;;922157;151;27857;-80
2022/01/19 10:52:39;;;;;;;6.20;5.40;;;9.10;74.30;;;;;;922006;155;27457;-80
2022/01/19 10:55:05;;;;;;;7.30;5.57;;;9.10;74.20;;;;;;918608;155;27348;-80
2022/01/19 10:57:31;;;;;;;5.97;5.13;;;9.20;74.30;;;;;;923030;154;27317;-80
2022/01/19 11:00:19;;;;;;;7.00;5.13;;;9.30;74.20;;;;;;921918;155;27314;-80
2022/01/19 11:02:46;;;;;;;7.50;5.80;;;9.40;73.90;;;;;;921672;154;27357;-80
2022/01/19 11:05:12;;;;;;;7.33;5.30;;;9.50;73.80;;;;;;922811;152;27394;-80
2022/01/19 11:07:39;;;;;;;7.43;5.80;;;9.50;73.50;;;;;;922467;152;27322;-80
2022/01/19 11:10:10;;;;;;;6.33;5.10;;;9.50;73.30;;;;;;922206;154;27431;-80
2022/01/19 11:12:40;;;;;;;6.23;5.50;;;9.50;73.10;;;;;;923773;151;27464;-80
2022/01/19 11:15:01;;;;;;;6.77;5.90;;;9.60;72.90;;;;;;921041;154;27506;-80
2022/01/19 11:17:28;;;;;;;7.07;5.60;;;9.60;72.90;;;;;;921554;152;27500;-80
2022/01/19 11:19:55;;;;;;;7.90;6.17;;;9.60;72.90;;;;;;922805;155;27514;-80
2022/01/19 11:22:27;;;;;;;7.77;6.60;;;9.60;72.90;;;;;;920228;154;27423;-80
2022/01/19 11:25:03;;;;;;;7.27;6.27;;;9.60;72.90;;;;;;921431;152;27400;-80
2022/01/19 11:27:35;;;;;;;6.67;5.97;;;9.60;72.80;;;;;;919929;151;27472;-80
2022/01/19 11:30:19;;;;;;;6.40;5.70;;;9.60;72.80;;;;;;912751;155;27378;-80
2022/01/19 11:32:46;;;;;;;11.33;7.30;;;9.60;72.80;;;;;;918348;152;27318;-80
2022/01/19 11:35:18;;;;;;;8.87;6.83;;;9.60;72.50;;;;;;920161;155;27415;-80
2022/01/19 11:37:47;;;;;;;7.10;6.40;;;9.60;72.10;;;;;;919850;151;27365;-80
2022/01/19 11:40:14;;;;;;;10.37;6.93;;;9.60;72.30;;;;;;921198;154;27474;-80
2022/01/19 11:42:41;;;;;;;10.97;7.10;;;9.60;72.50;;;;;;921653;151;27385;-80
2022/01/19 11:45:07;;;;;;;6.90;6.20;;;9.50;72.30;;;;;;920366;152;27754;-79
2022/01/19 11:47:34;;;;;;;9.47;6.40;;;9.50;72.30;;;;;;921549;154;27310;-79
2022/01/19 11:50:06;;;;;;;6.93;6.07;;;9.50;72.30;;;;;;921997;151;27393;-79
2022/01/19 11:52:38;;;;;;;9.53;7.33;;;9.50;72.20;;;;;;921511;155;27466;-80
2022/01/19 11:55:14;;;;;;;7.63;6.30;;;9.40;72.00;;;;;;921436;155;27326;-80
2022/01/19 11:57:41;;;;;;;7.87;6.93;;;9.40;72.00;;;;;;921248;154;27324;-80
2022/01/19 12:00:10;;;;;;;8.73;7.07;;;9.30;72.00;;;;;;922480;152;27931;-80
2022/01/19 12:02:40;;;;;;;10.67;7.50;;;9.30;72.00;;;;;;922932;155;27437;-80
2022/01/19 12:05:09;;;;;;;7.67;6.83;;;9.20;72.00;;;;;;920464;154;27463;-80
2022/01/19 12:07:52;;;;;;;7.53;6.73;;;9.20;72.00;;;;;;923383;155;27394;-80
2022/01/19 12:10:37;;;;;;;7.90;7.10;;;9.10;72.10;;;;;;920435;154;27363;-80
2022/01/19 12:16:30;;;;;;;9.57;7.27;;;9.00;72.40;;;;;;922613;155;27791;-80
2022/01/19 12:18:50;;;;;;;8.90;7.40;;;9.00;72.50;;;;;;920780;155;27486;-80
2022/01/19 12:21:17;;;;;;;8.43;7.20;;;8.90;72.60;;;;;;921655;151;27446;-80
2022/01/19 12:23:43;;;;;;;9.43;7.80;;;8.90;72.60;;;;;;919627;154;27326;-80
2022/01/19 12:26:10;;;;;;;8.57;7.67;;;8.90;72.80;;;;;;923619;151;27419;-81
2022/01/19 12:28:46;;;;;;;7.83;7.00;;;8.90;72.80;;;;;;924438;155;28416;-80
2022/01/19 12:31:31;;;;;;;9.60;8.60;;;8.90;72.70;;;;;;922133;154;27464;-80
2022/01/19 12:34:09;;;;;;;9.37;8.37;;;8.90;72.70;;;;;;922579;154;27490;-80
2022/01/19 12:36:56;;;;;;;9.80;8.17;;;8.80;72.50;;;;;;922837;151;27427;-80
2022/01/19 12:39:26;;;;;;;11.50;8.33;;;8.80;72.50;;;;;;923901;155;27395;-80
2022/01/19 12:42:01;;;;;;;10.93;8.17;;;8.80;72.70;;;;;;922524;153;27352;-80
2022/01/19 12:44:45;;;;;;;9.67;7.93;;;8.70;72.70;;;;;;921071;154;27496;-80
2022/01/19 12:47:27;;;;;;;9.00;7.63;;;8.70;72.90;;;;;;921506;155;27393;-80
2022/01/19 12:50:08;;;;;;;9.77;8.07;;;8.60;73.00;;;;;;921024;151;27358;-80
2022/01/19 12:52:35;;;;;;;10.10;8.33;;;8.60;73.30;;;;;;921401;154;27322;-80
2022/01/19 12:55:22;;;;;;;9.77;8.23;;;8.60;73.50;;;;;;920271;153;27475;-80
2022/01/19 12:57:49;;;;;;;10.03;8.43;;;8.60;73.50;;;;;;900706;154;27353;-81
2022/01/19 13:00:15;;;;;;;11.07;8.43;;;8.50;73.50;;;;;;922104;153;27423;-80
2022/01/19 13:02:42;;;;;;;8.73;7.77;;;8.50;73.60;;;;;;920927;154;27337;-80
2022/01/19 13:05:09;;;;;;;8.77;7.47;;;8.50;73.60;;;;;;921322;154;27490;-80
2022/01/19 13:07:38;;;;;;;10.50;8.90;;;8.40;73.60;;;;;;923215;151;27519;-80
2022/01/19 13:10:24;;;;;;;9.40;8.13;;;8.40;73.60;;;;;;920004;154;27340;-80
2022/01/19 13:13:08;;;;;;;9.70;7.27;;;8.40;73.60;;;;;;892556;159;27423;-80
2022/01/19 13:15:46;;;;;;;8.83;7.57;;;8.30;73.70;;;;;;915759;154;27389;-80
2022/01/19 13:18:12;;;;;;;9.17;7.63;;;8.30;73.80;;;;;;919837;152;27430;-80
2022/01/19 13:20:47;;;;;;;9.90;7.50;;;8.30;73.80;;;;;;918375;153;27347;-80
2022/01/19 13:23:14;;;;;;;7.90;7.07;;;8.20;73.90;;;;;;919487;152;27443;-80
2022/01/19 13:25:41;;;;;;;8.67;7.37;;;8.20;74.10;;;;;;923411;151;27341;-80
2022/01/19 13:28:07;;;;;;;10.97;8.47;;;8.20;74.20;;;;;;920900;154;27318;-80
2022/01/19 13:30:34;;;;;;;8.13;7.30;;;8.20;74.20;;;;;;920355;154;27357;-80
2022/01/19 13:33:09;;;;;;;11.53;8.13;;;8.20;74.20;;;;;;920899;152;27467;-80
2022/01/19 13:35:36;;;;;;;9.63;7.80;;;8.10;74.10;;;;;;892101;160;27433;-80
2022/01/19 13:38:03;;;;;;;9.17;7.27;;;8.10;74.10;;;;;;885514;161;27527;-80
2022/01/19 13:40:31;;;;;;;8.50;7.60;;;8.10;74.10;;;;;;920201;152;27411;-80
2022/01/19 13:42:56;;;;;;;9.10;7.63;;;8.00;74.10;;;;;;919667;151;27319;-80
2022/01/19 13:45:31;;;;;;;9.90;7.63;;;8.00;74.20;;;;;;920791;155;27385;-80
2022/01/19 13:50:40;;;;;;;7.40;6.37;;;8.00;74.40;;;;;;921213;151;27466;-80
2022/01/19 13:53:06;;;;;;;8.60;7.10;;;7.90;74.40;;;;;;920360;155;27429;-80
2022/01/19 13:55:33;;;;;;;8.20;6.40;;;7.90;74.40;;;;;;921002;152;27388;-79
2022/01/19 13:58:12;;;;;;;7.97;6.90;;;7.90;74.50;;;;;;921584;152;27918;-80
2022/01/19 14:00:35;;;;;;;7.87;6.43;;;7.90;74.60;;;;;;921102;155;28470;-80
2022/01/19 14:03:03;;;;;;;8.60;6.50;;;7.90;74.60;;;;;;920678;155;27411;-80
2022/01/19 14:05:34;;;;;;;8.27;7.37;;;7.80;74.70;;;;;;922426;155;27335;-79
2022/01/19 14:08:00;;;;;;;7.70;6.63;;;7.80;75.20;;;;;;921165;154;27295;-80
2022/01/19 14:10:27;;;;;;;8.57;7.00;;;7.80;74.70;;;;;;922311;154;27373;-79
2022/01/19 14:12:55;;;;;;;8.27;6.70;;;7.80;74.90;;;;;;920807;152;27390;-79
2022/01/19 14:15:20;;;;;;;7.93;7.07;;;7.70;74.90;;;;;;922454;155;27393;-79
2022/01/19 14:17:48;;;;;;;9.80;7.53;;;7.70;75.10;;;;;;921720;152;27332;-80
2022/01/19 14:20:16;;;;;;;9.80;7.00;;;7.70;75.20;;;;;;919985;155;27982;-79
2022/01/19 14:22:43;;;;;;;8.97;6.97;;;7.70;75.30;;;;;;920853;152;27472;-79